Time;durP1;ratioP1;P1;durP2;ratioP2;P2;SDS_P1;SDS_P2;PMS_P1;PMS_P2;Temp;Humidity;BMP_temperature;BMP_pressure;BME280_temperature;BME280_humidity;BME280_pressure;Samples;Min_cycle;Max_cycle;Signal;HPM_P1;HPM_P2
2022/12/09 00:01:58;;;;;;;16.77;9.90;;;-0.80;99.90;;;;;;4965678;28;20201;-84
2022/12/09 00:04:24;;;;;;;14.87;10.13;;;;;;;;;;4969833;28;20181;-86
2022/12/09 00:06:50;;;;;;;29.00;13.23;;;-0.90;99.90;;;;;;4965822;28;20641;-87
2022/12/09 00:09:16;;;;;;;27.60;12.87;;;;;;;;;;4965221;28;20188;-85
2022/12/09 00:11:42;;;;;;;20.58;11.45;;;;;;;;;;4961458;28;20211;-86
2022/12/09 00:14:10;;;;;;;18.35;11.57;;;-1.00;99.90;;;;;;4965235;28;20183;-89
2022/12/09 00:16:42;;;;;;;24.67;10.95;;;-1.10;99.90;;;;;;4963492;28;20177;-85
2022/12/09 00:19:08;;;;;;;20.20;12.20;;;;;;;;;;4971390;28;20185;-88
2022/12/09 00:21:33;;;;;;;19.50;11.25;;;-1.30;99.90;;;;;;4963472;28;20291;-87
2022/12/09 00:24:04;;;;;;;19.70;10.77;;;-1.40;99.90;;;;;;4974753;28;20973;-85
2022/12/09 00:26:30;;;;;;;19.92;11.05;;;;;;;;;;4970055;28;20212;-85
2022/12/09 00:28:57;;;;;;;21.83;11.70;;;-1.30;99.90;;;;;;4968067;28;20587;-85
2022/12/09 00:31:25;;;;;;;16.20;10.35;;;-1.40;99.90;;;;;;4972722;28;20287;-87
2022/12/09 00:33:54;;;;;;;21.63;10.50;;;-1.40;99.90;;;;;;4974212;28;20176;-85
2022/12/09 00:36:21;;;;;;;19.60;10.98;;;-1.50;99.90;;;;;;4975405;28;20635;-86
2022/12/09 00:38:48;;;;;;;18.52;9.93;;;;;;;;;;4970901;28;20192;-88
2022/12/09 00:41:14;;;;;;;15.00;8.95;;;;;;;;;;4964720;28;20205;-88
2022/12/09 00:43:41;;;;;;;16.27;8.90;;;-1.60;99.90;;;;;;4965122;28;20234;-87
2022/12/09 00:46:07;;;;;;;17.48;10.18;;;-1.60;99.90;;;;;;4971059;28;20207;-85
2022/12/09 00:48:33;;;;;;;17.53;9.23;;;;;;;;;;4965253;28;20244;-87
2022/12/09 00:51:00;;;;;;;19.92;9.35;;;-1.70;99.90;;;;;;4963105;28;20483;-88
2022/12/09 00:53:26;;;;;;;15.50;9.45;;;-1.70;99.90;;;;;;4963322;28;20176;-87
2022/12/09 00:55:52;;;;;;;15.27;8.00;;;;;;;;;;4965137;28;20559;-86
2022/12/09 00:58:18;;;;;;;12.80;7.20;;;;;;;;;;4964295;28;22168;-86
2022/12/09 01:00:46;;;;;;;14.87;8.47;;;-2.00;99.90;;;;;;4965292;28;20473;-86
2022/12/09 01:03:13;;;;;;;15.55;8.13;;;-2.10;99.90;;;;;;4961517;28;21076;-85
2022/12/09 01:05:39;;;;;;;12.15;6.68;;;;;;;;;;4963163;28;20436;-85
2022/12/09 01:08:05;;;;;;;12.77;6.82;;;;;;;;;;4970534;28;20173;-84
2022/12/09 01:10:33;;;;;;;13.38;7.20;;;-2.10;99.90;;;;;;4968801;28;20683;-84
2022/12/09 01:12:59;;;;;;;5.72;3.78;;;;;;;;;;4968242;28;20184;-82
2022/12/09 01:15:24;;;;;;;9.60;5.97;;;-2.20;99.90;;;;;;4966753;28;20297;-86
2022/12/09 01:17:50;;;;;;;11.27;6.57;;;;;;;;;;4962447;28;20491;-84
2022/12/09 01:20:16;;;;;;;16.30;6.97;;;;;;;;;;4961426;28;20251;-85
2022/12/09 01:22:42;;;;;;;11.63;6.53;;;-2.30;99.90;;;;;;4965470;28;20442;-85
2022/12/09 01:25:08;;;;;;;11.90;7.10;;;-2.40;99.90;;;;;;4965620;28;20291;-86
2022/12/09 01:27:34;;;;;;;13.57;8.90;;;;;;;;;;4967326;28;20176;-87
2022/12/09 01:30:00;;;;;;;13.77;8.20;;;;;;;;;;4963095;28;20281;-87
2022/12/09 01:32:26;;;;;;;13.60;7.40;;;;;;;;;;4962815;28;20432;-87
2022/12/09 01:34:52;;;;;;;16.53;7.63;;;-2.30;99.90;;;;;;4963861;28;20439;-88
2022/12/09 01:37:18;;;;;;;11.27;8.00;;;;;;;;;;4966331;28;20459;-86
2022/12/09 01:39:43;;;;;;;13.87;8.33;;;-2.30;99.90;;;;;;4966031;28;20301;-84
2022/12/09 01:42:20;;;;;;;14.13;8.43;;;-2.20;99.90;;;;;;4960148;28;20463;-83
2022/12/09 01:45:20;;;;;;;14.52;8.63;;;-2.10;99.90;;;;;;4967262;28;20295;-86
2022/12/09 01:48:00;;;;;;;17.60;8.70;;;-2.10;99.90;;;;;;4961946;28;20173;-85
2022/12/09 01:50:26;;;;;;;19.15;9.60;;;-2.00;99.90;;;;;;4957404;28;20218;-85
2022/12/09 01:52:52;;;;;;;14.65;9.70;;;-2.00;99.90;;;;;;4959362;28;20180;-84
2022/12/09 01:55:18;;;;;;;21.17;8.05;;;-1.90;99.90;;;;;;4959984;28;20669;-84
2022/12/09 01:57:44;;;;;;;13.10;7.70;;;-1.90;99.90;;;;;;4959339;28;20184;-86
2022/12/09 02:00:16;;;;;;;13.82;8.00;;;-1.90;99.90;;;;;;4959782;28;20200;-85
2022/12/09 02:02:45;;;;;;;17.75;9.55;;;-1.90;99.90;;;;;;4962763;28;20200;-83
2022/12/09 02:05:11;;;;;;;17.58;9.05;;;-1.80;99.90;;;;;;4961383;28;20263;-83
2022/12/09 02:07:36;;;;;;;15.50;9.63;;;-1.90;99.90;;;;;;4960256;28;20280;-86
2022/12/09 02:10:06;;;;;;;16.80;10.80;;;-1.90;99.90;;;;;;4957655;28;20183;-83
2022/12/09 02:13:01;;;;;;;19.88;12.48;;;-1.90;99.90;;;;;;4959621;28;20187;-83
2022/12/09 02:15:42;;;;;;;20.70;11.13;;;-1.90;99.90;;;;;;4952136;28;20658;-87
2022/12/09 02:18:24;;;;;;;16.13;9.63;;;-1.90;99.90;;;;;;4962364;28;20491;-86
2022/12/09 02:21:00;;;;;;;18.33;9.38;;;-1.90;99.90;;;;;;4969057;28;20224;-86
2022/12/09 02:23:35;;;;;;;14.88;8.38;;;-2.00;99.90;;;;;;4953612;28;20729;-85
2022/12/09 02:26:25;;;;;;;18.10;9.75;;;-2.00;99.90;;;;;;4954249;28;20203;-85
2022/12/09 02:29:06;;;;;;;15.20;8.65;;;-2.10;99.90;;;;;;4953637;28;20196;-83
2022/12/09 02:31:47;;;;;;;12.18;7.13;;;-2.20;99.90;;;;;;4965413;28;20918;-88
2022/12/09 02:34:17;;;;;;;11.10;8.30;;;-2.40;99.90;;;;;;4963878;28;20180;-84
2022/12/09 02:37:07;;;;;;;14.13;7.72;;;-2.50;99.90;;;;;;4959593;28;20195;-86
2022/12/09 02:39:43;;;;;;;13.60;8.50;;;-2.50;99.90;;;;;;4957518;28;20800;-85
2022/12/09 02:42:14;;;;;;;18.02;8.57;;;-2.50;99.90;;;;;;4950714;28;20284;-85
2022/12/09 02:44:42;;;;;;;15.02;6.15;;;-2.50;99.90;;;;;;4955136;28;20286;-87
2022/12/09 02:47:13;;;;;;;13.48;7.78;;;-2.40;99.90;;;;;;4954227;28;20211;-84
2022/12/09 02:49:40;;;;;;;12.63;7.35;;;-2.40;99.90;;;;;;4973856;28;20201;-84
2022/12/09 02:52:06;;;;;;;13.80;8.70;;;-2.60;99.90;;;;;;4952135;28;20256;-85
2022/12/09 02:54:35;;;;;;;17.02;9.38;;;-2.70;99.90;;;;;;4961104;28;20928;-85
2022/12/09 02:57:06;;;;;;;14.27;8.75;;;-2.60;99.90;;;;;;4962681;28;20187;-87
2022/12/09 02:59:32;;;;;;;12.80;7.13;;;-2.70;99.90;;;;;;4956835;28;20226;-84
2022/12/09 03:02:20;;;;;;;21.63;9.30;;;-2.60;99.90;;;;;;4951204;28;20260;-78
2022/12/09 03:04:57;;;;;;;15.43;8.50;;;-2.70;99.90;;;;;;4958690;28;20177;-84
2022/12/09 03:07:40;;;;;;;13.95;8.95;;;-2.70;99.90;;;;;;4961579;28;20179;-87
2022/12/09 03:10:31;;;;;;;17.52;10.30;;;-2.70;99.90;;;;;;4957056;28;20187;-84
2022/12/09 03:13:17;;;;;;;18.67;7.45;;;-2.70;99.90;;;;;;4963003;28;20184;-85
2022/12/09 03:15:48;;;;;;;8.95;5.93;;;-2.70;99.90;;;;;;4963512;28;20208;-85
2022/12/09 03:18:16;;;;;;;10.65;6.20;;;-2.80;99.90;;;;;;4958308;28;20183;-83
2022/12/09 03:20:44;;;;;;;10.55;5.88;;;-3.00;99.90;;;;;;4965630;28;20235;-85
2022/12/09 03:23:13;;;;;;;13.05;7.63;;;-3.10;99.90;;;;;;4962017;28;20271;-85
2022/12/09 03:25:44;;;;;;;8.40;5.93;;;-3.10;99.90;;;;;;4960028;28;20655;-85
2022/12/09 03:28:18;;;;;;;11.95;6.45;;;-3.10;99.90;;;;;;4963327;28;20244;-84
2022/12/09 03:30:45;;;;;;;16.83;7.30;;;-3.00;99.90;;;;;;4960740;28;20203;-84
2022/12/09 03:33:13;;;;;;;12.50;6.57;;;-3.00;99.90;;;;;;4959621;28;20181;-86
2022/12/09 03:35:42;;;;;;;8.40;4.45;;;-3.10;99.90;;;;;;4963001;28;20211;-84
2022/12/09 03:38:13;;;;;;;9.63;5.90;;;-3.10;99.90;;;;;;4958404;28;20192;-83
2022/12/09 03:40:40;;;;;;;12.88;5.43;;;-3.20;99.90;;;;;;4957490;28;20242;-83
2022/12/09 03:43:14;;;;;;;10.13;6.60;;;-3.20;99.90;;;;;;4964439;28;20190;-83
2022/12/09 03:45:41;;;;;;;10.52;4.93;;;-3.30;99.90;;;;;;4959618;28;20207;-82
2022/12/09 03:48:07;;;;;;;7.07;4.93;;;-3.40;99.90;;;;;;4962399;28;20184;-82
2022/12/09 03:50:57;;;;;;;8.45;4.53;;;-3.30;99.90;;;;;;4961510;28;20242;-80
2022/12/09 03:53:33;;;;;;;9.77;4.90;;;-3.30;99.90;;;;;;4954838;28;20310;-82
2022/12/09 03:56:07;;;;;;;7.68;4.32;;;-3.30;99.90;;;;;;4964427;28;20654;-81
2022/12/09 03:58:35;;;;;;;4.13;3.67;;;-3.20;99.90;;;;;;4964568;28;20188;-82
2022/12/09 04:01:01;;;;;;;7.40;3.50;;;-3.20;99.90;;;;;;4955311;28;20211;-85
2022/12/09 04:03:27;;;;;;;7.78;4.45;;;-3.10;99.90;;;;;;4958262;28;20204;-82
2022/12/09 04:05:52;;;;;;;9.73;5.30;;;-3.10;99.90;;;;;;4961776;28;20204;-84
2022/12/09 04:08:18;;;;;;;9.90;6.10;;;-3.00;99.90;;;;;;4961995;28;20191;-83
2022/12/09 04:10:43;;;;;;;17.40;8.53;;;-3.00;99.90;;;;;;4959021;28;20211;-85
2022/12/09 04:13:09;;;;;;;12.00;7.17;;;-2.80;99.90;;;;;;4955750;28;20189;-80
2022/12/09 04:15:35;;;;;;;4.60;4.10;;;-2.60;99.90;;;;;;4963171;28;20229;-86
2022/12/09 04:18:00;;;;;;;6.30;3.73;;;-2.60;99.90;;;;;;4958587;28;20188;-85
2022/12/09 04:20:26;;;;;;;5.80;4.50;;;-2.60;99.90;;;;;;4966499;28;20264;-82
2022/12/09 04:22:52;;;;;;;15.00;8.30;;;;;;;;;;4962748;28;20237;-85
2022/12/09 04:25:17;;;;;;;15.13;9.00;;;-2.70;99.90;;;;;;4965184;28;20204;-80
2022/12/09 04:27:43;;;;;;;4.17;3.20;;;-2.60;99.90;;;;;;4963148;28;20432;-84
2022/12/09 04:30:09;;;;;;;5.00;3.03;;;-2.80;99.90;;;;;;4958538;28;20281;-85
2022/12/09 04:32:34;;;;;;;12.00;4.20;;;-2.80;99.90;;;;;;4970739;28;20607;-81
2022/12/09 04:35:00;;;;;;;6.77;3.40;;;-2.80;99.90;;;;;;4963348;28;20446;-83
2022/12/09 04:37:25;;;;;;;7.10;3.10;;;-2.80;99.90;;;;;;4963953;28;20184;-86
2022/12/09 04:39:51;;;;;;;9.77;2.87;;;-2.90;99.90;;;;;;4966610;28;20183;-87
2022/12/09 04:42:16;;;;;;;9.30;5.73;;;-2.90;99.90;;;;;;4967382;28;20192;-81
2022/12/09 04:44:42;;;;;;;5.10;3.00;;;-2.90;99.90;;;;;;4959729;28;20180;-81
2022/12/09 04:47:07;;;;;;;11.03;4.47;;;-2.90;99.90;;;;;;4963429;28;20593;-82
2022/12/09 04:49:33;;;;;;;4.80;3.37;;;-2.90;99.90;;;;;;4964909;28;20228;-82
2022/12/09 04:51:59;;;;;;;8.47;5.00;;;-2.90;99.90;;;;;;4959906;28;20204;-80
2022/12/09 04:54:24;;;;;;;5.13;3.67;;;-2.90;99.90;;;;;;4973682;28;20191;-81
2022/12/09 04:56:50;;;;;;;7.17;3.90;;;-2.90;99.90;;;;;;4961335;28;20218;-81
2022/12/09 04:59:15;;;;;;;5.17;3.77;;;-3.00;99.90;;;;;;4961206;28;20189;-83
2022/12/09 05:01:41;;;;;;;8.20;3.50;;;-3.10;99.90;;;;;;4964823;28;20302;-82
2022/12/09 05:04:07;;;;;;;7.10;4.13;;;;;;;;;;4961759;28;20203;-83
2022/12/09 05:06:33;;;;;;;6.30;4.13;;;-3.20;99.90;;;;;;4962586;28;20680;-80
2022/12/09 05:08:59;;;;;;;8.50;5.10;;;-3.30;99.90;;;;;;4961431;28;20180;-80
2022/12/09 05:11:24;;;;;;;8.23;5.67;;;-3.30;99.90;;;;;;4973553;28;20329;-80
2022/12/09 05:13:51;;;;;;;9.40;5.30;;;-3.30;99.90;;;;;;4955960;28;20439;-83
2022/12/09 05:16:18;;;;;;;8.25;5.00;;;-3.20;99.90;;;;;;4968065;28;20661;-86
2022/12/09 05:18:45;;;;;;;7.75;4.60;;;-3.10;99.90;;;;;;4961377;28;20185;-80
2022/12/09 05:21:13;;;;;;;4.68;4.10;;;;;;;;;;4979176;22;20223;-89
2022/12/09 05:23:39;;;;;;;13.75;4.90;;;;;;;;;;4953715;28;20283;-87
2022/12/09 05:26:07;;;;;;;7.93;5.50;;;-3.00;99.90;;;;;;4950555;28;20211;-90
2022/12/09 05:28:33;;;;;;;8.52;4.70;;;-3.00;99.90;;;;;;4959408;28;20195;-86
2022/12/09 05:31:13;;;;;;;9.10;4.47;;;-3.00;99.90;;;;;;4959252;28;20188;-87
2022/12/09 05:33:39;;;;;;;11.52;5.93;;;;;;;;;;4959049;28;20460;-89
2022/12/09 05:36:12;;;;;;;9.52;4.80;;;-2.90;99.90;;;;;;4948320;28;20652;-86
2022/12/09 05:38:38;;;;;;;5.90;4.00;;;;;;;;;;4957225;28;21162;-90
2022/12/09 05:41:04;;;;;;;8.77;4.90;;;-2.90;99.90;;;;;;4960351;28;20222;-88
2022/12/09 05:43:31;;;;;;;9.80;4.00;;;-2.90;99.90;;;;;;4962844;28;20200;-85
2022/12/09 05:45:57;;;;;;;7.18;5.13;;;;;;;;;;4958281;28;20510;-89
2022/12/09 05:48:23;;;;;;;12.85;6.25;;;-2.90;99.90;;;;;;4953889;28;20176;-88
2022/12/09 05:51:00;;;;;;;10.17;5.67;;;-3.00;99.90;;;;;;4949296;28;20255;-88
2022/12/09 05:53:26;;;;;;;10.40;6.20;;;-3.00;99.90;;;;;;4950753;28;20200;-88
2022/12/09 05:55:52;;;;;;;24.33;8.57;;;;;;;;;;4955231;28;20258;-89
2022/12/09 05:58:18;;;;;;;15.07;9.00;;;;;;;;;;4960814;28;20442;-90
2022/12/09 06:00:44;;;;;;;22.50;11.77;;;;;;;;;;4963760;28;20192;-91
2022/12/09 06:03:10;;;;;;;26.25;13.25;;;;;;;;;;4958496;28;20478;-89
2022/12/09 06:05:36;;;;;;;25.63;13.30;;;-3.00;99.90;;;;;;4967873;28;20210;-89
2022/12/09 06:08:03;;;;;;;37.45;14.50;;;-2.30;99.90;;;;;;4948391;28;20482;-88
2022/12/09 06:10:29;;;;;;;73.18;17.45;;;-3.00;99.90;;;;;;4947014;28;20184;-89
2022/12/09 06:12:55;;;;;;;29.93;13.40;;;;;;;;;;4950194;28;20250;-90
2022/12/09 06:15:21;;;;;;;24.98;12.15;;;-2.90;99.90;;;;;;4952832;28;20187;-87
2022/12/09 06:17:46;;;;;;;19.70;9.87;;;-2.90;99.90;;;;;;4955910;28;20279;-87
2022/12/09 06:20:12;;;;;;;14.93;8.30;;;-2.20;99.90;;;;;;4971619;28;20488;-87
2022/12/09 06:22:38;;;;;;;11.90;7.27;;;;;;;;;;4973053;28;20274;-89
2022/12/09 06:25:04;;;;;;;23.83;11.67;;;-2.80;99.90;;;;;;4963828;28;20236;-89
2022/12/09 06:27:30;;;;;;;20.00;9.10;;;;;;;;;;4954033;28;20500;-88
2022/12/09 06:29:56;;;;;;;25.08;12.38;;;-3.10;99.90;;;;;;4962868;28;20195;-89
2022/12/09 06:32:22;;;;;;;18.43;10.77;;;;;;;;;;4971522;28;20207;-87
2022/12/09 06:34:48;;;;;;;20.13;11.40;;;;;;;;;;4975737;28;20311;-90
2022/12/09 06:37:17;;;;;;;21.30;11.43;;;-3.10;99.90;;;;;;4958632;28;20436;-89
2022/12/09 06:39:43;;;;;;;25.98;11.95;;;;;;;;;;4954180;28;20195;-89
2022/12/09 06:42:08;;;;;;;27.23;8.93;;;-3.00;99.90;;;;;;4955301;28;20205;-88
2022/12/09 06:44:34;;;;;;;15.17;8.03;;;;;;;;;;4962267;28;20437;-88
2022/12/09 06:47:00;;;;;;;16.23;9.17;;;-3.00;99.90;;;;;;4954631;28;20287;-89
2022/12/09 06:49:26;;;;;;;12.93;9.20;;;;;;;;;;4959687;28;20436;-89
2022/12/09 06:51:52;;;;;;;13.27;8.52;;;-2.70;99.90;;;;;;4954396;28;20195;-88
2022/12/09 06:54:18;;;;;;;13.20;7.33;;;-2.70;99.90;;;;;;4955535;28;20196;-89
2022/12/09 06:56:43;;;;;;;10.82;7.13;;;-2.70;99.90;;;;;;4956111;28;20208;-89
2022/12/09 06:59:09;;;;;;;28.27;17.97;;;-2.10;99.90;;;;;;4952556;28;20183;-89
2022/12/09 07:01:36;;;;;;;13.43;8.43;;;-2.70;99.90;;;;;;4958840;28;20536;-88
2022/12/09 07:04:04;;;;;;;13.20;7.53;;;-2.70;99.90;;;;;;4964311;28;20446;-89
2022/12/09 07:06:41;;;;;;;10.50;7.18;;;-2.70;99.90;;;;;;4955448;28;20711;-89
2022/12/09 07:09:13;;;;;;;9.93;6.32;;;-2.70;99.90;;;;;;4974387;28;20190;-86
2022/12/09 07:14:04;;;;;;;11.10;6.03;;;-2.80;99.90;;;;;;4981548;22;20768;-83
2022/12/09 07:16:30;;;;;;;10.13;5.97;;;-2.80;99.90;;;;;;4980021;28;20524;-85
2022/12/09 07:18:55;;;;;;;13.70;6.67;;;-2.80;99.90;;;;;;4965938;28;20514;-86
2022/12/09 07:21:23;;;;;;;12.23;7.07;;;-2.80;99.90;;;;;;4979420;28;20204;-87
2022/12/09 07:23:49;;;;;;;14.60;8.60;;;-2.80;99.90;;;;;;4967810;28;20188;-85
2022/12/09 07:26:15;;;;;;;10.40;6.20;;;;;;;;;;4968327;28;20849;-86
2022/12/09 07:28:41;;;;;;;10.27;6.05;;;-2.90;99.90;;;;;;4970462;28;20921;-87
2022/12/09 07:31:17;;;;;;;14.30;6.95;;;-3.00;99.90;;;;;;4965355;28;20211;-86
2022/12/09 07:33:42;;;;;;;16.35;7.65;;;-3.00;99.90;;;;;;4968284;28;20191;-85
2022/12/09 07:36:08;;;;;;;22.03;11.37;;;-2.90;99.90;;;;;;4966331;28;20191;-86
2022/12/09 07:38:34;;;;;;;23.57;12.03;;;;;;;;;;4968058;28;21916;-87
2022/12/09 07:41:16;;;;;;;22.13;9.40;;;-2.80;99.90;;;;;;4969439;28;20215;-87
2022/12/09 07:43:43;;;;;;;18.20;9.10;;;-2.80;99.90;;;;;;4982260;28;20492;-83
2022/12/09 07:46:08;;;;;;;16.48;8.27;;;-2.70;99.90;;;;;;4967247;28;20380;-83
2022/12/09 07:48:34;;;;;;;15.67;9.43;;;-2.50;99.90;;;;;;4968012;28;20207;-85
2022/12/09 07:51:04;;;;;;;21.47;11.47;;;-2.40;99.90;;;;;;4964639;28;20265;-83
2022/12/09 07:53:30;;;;;;;23.25;13.32;;;-2.20;99.90;;;;;;4967362;28;20181;-85
2022/12/09 07:56:01;;;;;;;26.77;14.10;;;-2.00;99.90;;;;;;4965172;28;20214;-84
2022/12/09 07:58:27;;;;;;;30.60;18.60;;;;;;;;;;4964309;28;20187;-83
2022/12/09 08:00:53;;;;;;;21.50;12.40;;;-1.80;99.90;;;;;;4964918;28;20234;-83
2022/12/09 08:03:19;;;;;;;21.67;11.40;;;;;;;;;;4964576;28;20185;-84
2022/12/09 08:05:48;;;;;;;18.73;10.93;;;-1.80;99.90;;;;;;4962854;28;20792;-84
2022/12/09 08:08:14;;;;;;;33.70;13.68;;;-1.70;99.90;;;;;;4965730;28;20652;-84
2022/12/09 08:10:40;;;;;;;24.27;13.20;;;;;;;;;;4965785;28;20204;-83
2022/12/09 08:13:06;;;;;;;20.63;12.60;;;;;;;;;;4958398;28;20327;-84
2022/12/09 08:15:31;;;;;;;19.77;12.53;;;-1.40;99.90;;;;;;4951212;28;20448;-84
2022/12/09 08:17:57;;;;;;;15.40;9.67;;;-1.40;99.90;;;;;;4972091;28;20435;-85
2022/12/09 08:20:23;;;;;;;21.97;12.83;;;-1.10;99.90;;;;;;4962826;28;20204;-84
2022/12/09 08:22:48;;;;;;;21.33;12.30;;;;;;;;;;4957179;28;20808;-84
2022/12/09 08:25:15;;;;;;;19.90;10.97;;;-0.70;99.90;;;;;;4958943;28;20211;-82
2022/12/09 08:27:41;;;;;;;22.00;11.60;;;-0.50;99.90;;;;;;4962040;28;21034;-84
2022/12/09 08:30:07;;;;;;;27.00;15.00;;;-0.30;99.90;;;;;;4960562;28;20204;-83
2022/12/09 08:32:32;;;;;;;16.40;9.75;;;-0.10;99.90;;;;;;4959449;28;20191;-83
2022/12/09 08:34:58;;;;;;;18.73;12.27;;;0.20;99.90;;;;;;4967237;28;20183;-84
2022/12/09 08:37:24;;;;;;;21.50;10.30;;;;;;;;;;4963548;28;20455;-83
2022/12/09 08:39:49;;;;;;;15.25;9.55;;;0.30;99.90;;;;;;4969184;28;20544;-84
2022/12/09 08:42:15;;;;;;;23.17;12.50;;;0.30;99.90;;;;;;4965413;28;20186;-84
2022/12/09 08:44:41;;;;;;;16.20;11.77;;;0.30;99.90;;;;;;4966001;28;20241;-86
2022/12/09 08:47:07;;;;;;;16.83;10.00;;;;;;;;;;4961396;28;20525;-81
2022/12/09 08:49:33;;;;;;;20.33;10.98;;;;;;;;;;4959034;28;20218;-83
2022/12/09 08:51:58;;;;;;;17.92;11.55;;;0.70;99.90;;;;;;4958615;28;20298;-83
2022/12/09 08:54:24;;;;;;;22.83;11.77;;;0.80;99.90;;;;;;4962436;28;20739;-84
2022/12/09 08:56:53;;;;;;;16.50;11.20;;;1.20;99.90;;;;;;4965671;28;20187;-84
2022/12/09 08:59:19;;;;;;;18.65;11.77;;;1.40;99.90;;;;;;4962187;28;20204;-84
2022/12/09 09:01:46;;;;;;;20.60;10.45;;;1.40;99.90;;;;;;4958995;28;20609;-82
2022/12/09 09:04:15;;;;;;;17.92;10.85;;;1.50;99.90;;;;;;4958211;28;20203;-82
2022/12/09 09:06:43;;;;;;;16.67;10.25;;;1.40;99.90;;;;;;4957274;28;20724;-84
2022/12/09 09:09:10;;;;;;;23.90;11.77;;;1.40;99.90;;;;;;4965327;28;20602;-85
2022/12/09 09:11:36;;;;;;;20.23;12.57;;;1.60;99.90;;;;;;4957098;28;20670;-86
2022/12/09 09:14:04;;;;;;;18.57;12.20;;;1.60;99.90;;;;;;4955700;28;20202;-83
2022/12/09 09:16:29;;;;;;;26.45;12.63;;;1.90;99.90;;;;;;4958249;28;20188;-83
2022/12/09 09:18:55;;;;;;;18.77;13.00;;;2.10;99.90;;;;;;4955256;28;20202;-84
2022/12/09 09:21:23;;;;;;;22.97;14.33;;;2.20;99.90;;;;;;4970576;28;20204;-85
2022/12/09 09:23:48;;;;;;;21.75;12.35;;;2.00;99.90;;;;;;4953479;28;20184;-84
2022/12/09 09:26:20;;;;;;;25.50;13.57;;;2.00;99.90;;;;;;4957219;28;20211;-84
2022/12/09 09:28:46;;;;;;;23.10;14.00;;;2.00;99.90;;;;;;4955680;28;21065;-84
2022/12/09 09:31:14;;;;;;;23.43;14.60;;;2.50;99.90;;;;;;4961027;28;20586;-85
2022/12/09 09:33:40;;;;;;;26.30;15.38;;;1.90;99.90;;;;;;4955552;28;20447;-83
2022/12/09 09:36:10;;;;;;;24.52;13.25;;;2.00;99.90;;;;;;4959655;28;20196;-83
2022/12/09 09:38:36;;;;;;;24.55;11.57;;;2.10;99.90;;;;;;4954626;28;20565;-83
2022/12/09 09:41:14;;;;;;;23.90;14.40;;;2.00;99.90;;;;;;4960460;28;20211;-83
2022/12/09 09:43:39;;;;;;;23.45;14.57;;;2.20;99.90;;;;;;4957612;28;20821;-85
2022/12/09 09:46:05;;;;;;;27.07;13.97;;;2.30;99.90;;;;;;4960453;28;20207;-84
2022/12/09 09:48:34;;;;;;;28.33;16.00;;;2.10;99.90;;;;;;4959168;28;20176;-83
2022/12/09 09:51:10;;;;;;;26.58;14.90;;;2.10;99.90;;;;;;4946818;28;20307;-85
2022/12/09 09:53:35;;;;;;;23.08;14.07;;;1.40;99.90;;;;;;4951775;28;20183;-85
2022/12/09 09:56:24;;;;;;;28.13;14.17;;;1.40;99.90;;;;;;4957810;28;20183;-83
2022/12/09 09:58:50;;;;;;;36.03;16.27;;;1.60;99.90;;;;;;4959203;28;20237;-83
2022/12/09 10:01:17;;;;;;;34.07;18.57;;;1.60;99.90;;;;;;4955709;28;20216;-83
2022/12/09 10:03:52;;;;;;;33.00;18.33;;;1.60;99.90;;;;;;4952852;28;20192;-83
2022/12/09 10:06:39;;;;;;;25.23;15.00;;;1.90;99.90;;;;;;4949491;28;20529;-83
2022/12/09 10:09:25;;;;;;;31.83;17.35;;;2.30;99.90;;;;;;4955980;28;20188;-84
2022/12/09 10:11:59;;;;;;;28.98;17.55;;;2.30;99.90;;;;;;4958864;28;20179;-84
2022/12/09 10:14:41;;;;;;;27.02;17.38;;;2.30;99.90;;;;;;4956339;28;20704;-84
2022/12/09 10:17:22;;;;;;;34.05;17.80;;;2.30;99.90;;;;;;4970315;28;20220;-85
2022/12/09 10:19:50;;;;;;;32.58;16.05;;;2.40;99.90;;;;;;4947686;28;20203;-83
2022/12/09 10:22:20;;;;;;;40.17;19.67;;;2.50;99.90;;;;;;4962655;28;20207;-86
2022/12/09 10:24:49;;;;;;;45.47;29.55;;;2.40;99.90;;;;;;4965681;28;20718;-84
2022/12/09 10:27:35;;;;;;;28.83;16.27;;;2.50;99.90;;;;;;4958581;28;20658;-83
2022/12/09 10:30:14;;;;;;;26.48;15.57;;;2.50;99.90;;;;;;4950856;28;20208;-83
2022/12/09 10:32:40;;;;;;;22.95;14.60;;;2.60;99.90;;;;;;4952599;28;20179;-83
2022/12/09 10:35:33;;;;;;;28.90;15.77;;;2.60;99.90;;;;;;4968651;28;20195;-84
2022/12/09 10:38:08;;;;;;;31.00;18.33;;;3.00;99.90;;;;;;4948670;28;20196;-81
2022/12/09 10:41:00;;;;;;;22.40;14.00;;;3.00;99.90;;;;;;4968908;28;20634;-84
2022/12/09 10:43:37;;;;;;;24.23;14.50;;;2.90;99.90;;;;;;4962513;28;20617;-84
2022/12/09 10:46:18;;;;;;;22.55;13.88;;;2.80;99.90;;;;;;4956947;28;20744;-85
2022/12/09 10:48:46;;;;;;;25.70;15.38;;;2.80;99.90;;;;;;4957942;28;20665;-84
2022/12/09 10:51:17;;;;;;;26.98;15.45;;;3.00;99.90;;;;;;4954862;28;20637;-84
2022/12/09 10:53:49;;;;;;;26.58;15.25;;;3.40;99.90;;;;;;4960841;28;20211;-86
2022/12/09 10:56:35;;;;;;;21.75;14.50;;;3.60;99.90;;;;;;4963883;28;20186;-86
2022/12/09 10:59:24;;;;;;;24.52;15.15;;;3.70;99.90;;;;;;4954105;28;20194;-85
2022/12/09 11:01:51;;;;;;;24.15;13.38;;;3.60;99.90;;;;;;4964039;28;20555;-84
2022/12/09 11:04:29;;;;;;;40.17;15.88;;;3.80;99.90;;;;;;4973027;28;20196;-83
2022/12/09 11:07:00;;;;;;;27.70;14.43;;;3.90;99.90;;;;;;4966158;28;20203;-85
2022/12/09 11:09:32;;;;;;;24.58;15.50;;;3.50;99.90;;;;;;4964374;28;20241;-84
2022/12/09 11:11:59;;;;;;;25.92;15.50;;;3.50;99.90;;;;;;4958934;28;20192;-82
2022/12/09 11:14:35;;;;;;;27.50;15.05;;;3.60;99.90;;;;;;4965252;28;20214;-84
2022/12/09 11:17:15;;;;;;;26.58;14.68;;;4.80;99.90;;;;;;4960153;28;20275;-85
2022/12/09 11:19:53;;;;;;;29.30;15.18;;;4.00;99.90;;;;;;4959754;28;20203;-84
2022/12/09 11:22:37;;;;;;;25.85;15.93;;;3.90;99.90;;;;;;4966343;28;20542;-82
2022/12/09 11:25:25;;;;;;;21.55;14.20;;;3.90;99.90;;;;;;4962482;28;20183;-84
2022/12/09 11:28:01;;;;;;;28.38;16.00;;;4.10;99.90;;;;;;4968612;28;20176;-84
2022/12/09 11:30:31;;;;;;;23.33;14.95;;;4.00;99.90;;;;;;4967493;28;20213;-83
2022/12/09 11:33:01;;;;;;;31.75;17.58;;;4.00;99.90;;;;;;4967430;28;20177;-83
2022/12/09 11:35:35;;;;;;;24.20;15.55;;;4.00;99.90;;;;;;4967799;28;20188;-83
2022/12/09 11:38:13;;;;;;;30.23;15.65;;;3.80;99.90;;;;;;4965634;28;20682;-82
2022/12/09 11:40:39;;;;;;;35.67;18.20;;;3.70;99.90;;;;;;4971226;28;20215;-83
2022/12/09 11:43:05;;;;;;;25.03;16.37;;;;;;;;;;4976428;28;20184;-82
2022/12/09 11:45:35;;;;;;;36.33;16.27;;;3.40;99.90;;;;;;4971595;28;20208;-82
2022/12/09 11:48:28;;;;;;;27.42;17.55;;;3.40;99.90;;;;;;4966034;28;20192;-84
2022/12/09 11:50:55;;;;;;;29.83;17.55;;;3.40;99.90;;;;;;4978002;28;20302;-84
2022/12/09 11:53:29;;;;;;;26.80;15.20;;;3.50;99.90;;;;;;4966084;28;20196;-86
2022/12/09 11:56:07;;;;;;;29.00;17.75;;;3.50;99.90;;;;;;4981621;28;20206;-83
2022/12/09 11:58:38;;;;;;;25.75;16.88;;;3.40;99.90;;;;;;4967047;28;20329;-82
2022/12/09 12:01:31;;;;;;;33.60;17.58;;;3.50;99.90;;;;;;4985803;28;20219;-85
2022/12/09 12:04:03;;;;;;;33.83;17.13;;;3.50;99.90;;;;;;4959311;28;20183;-82
2022/12/09 12:06:42;;;;;;;29.35;15.95;;;3.60;99.90;;;;;;4978706;28;20261;-82
2022/12/09 12:09:21;;;;;;;31.15;17.48;;;3.80;99.90;;;;;;4967163;28;20666;-83
2022/12/09 12:12:08;;;;;;;24.25;15.52;;;3.80;99.90;;;;;;4962799;28;20191;-82
2022/12/09 12:14:37;;;;;;;29.90;16.77;;;3.70;99.90;;;;;;4993207;28;20266;-82
2022/12/09 12:17:28;;;;;;;27.80;16.20;;;3.50;99.90;;;;;;4971685;28;20617;-83
2022/12/09 12:19:56;;;;;;;148.98;67.32;;;4.10;99.90;;;;;;4960229;28;20214;-82
2022/12/09 12:23:06;;;;;;;51.75;30.65;;;4.10;99.90;;;;;;4975863;28;20311;-83
2022/12/09 12:26:05;;;;;;;40.65;22.80;;;4.40;99.90;;;;;;4969841;28;20889;-82
2022/12/09 12:28:54;;;;;;;31.58;18.33;;;5.20;99.90;;;;;;4975229;28;20176;-82
2022/12/09 12:31:37;;;;;;;24.83;15.70;;;5.10;99.90;;;;;;4961484;28;20200;-84
2022/12/09 12:34:44;;;;;;;33.90;18.65;;;5.10;99.90;;;;;;4970760;28;21097;-85
2022/12/09 12:37:37;;;;;;;34.30;17.55;;;5.10;99.90;;;;;;4995663;28;20222;-82
2022/12/09 12:40:07;;;;;;;28.40;16.92;;;5.00;99.90;;;;;;4952726;28;20694;-83
2022/12/09 12:46:21;;;;;;;31.23;16.27;;;4.80;99.90;;;;;;4981239;28;20234;-84
2022/12/09 12:48:56;;;;;;;27.05;14.18;;;4.60;99.90;;;;;;4969824;28;20196;-82
2022/12/09 12:51:40;;;;;;;25.27;15.45;;;4.70;99.90;;;;;;5001584;28;20210;-82
2022/12/09 12:54:33;;;;;;;30.90;16.17;;;4.80;99.90;;;;;;5008165;28;20528;-81
2022/12/09 12:57:15;;;;;;;25.13;14.05;;;4.70;99.90;;;;;;4949633;28;20188;-84
2022/12/09 13:00:12;;;;;;;28.23;15.70;;;4.40;99.90;;;;;;5069495;28;20200;-85
2022/12/09 13:02:58;;;;;;;25.70;14.48;;;4.30;99.90;;;;;;4976372;28;20193;-84
2022/12/09 13:05:41;;;;;;;30.42;16.92;;;4.40;99.90;;;;;;4949287;28;20200;-84
2022/12/09 13:08:29;;;;;;;22.58;12.90;;;4.00;99.90;;;;;;4951787;28;20188;-83
2022/12/09 13:10:58;;;;;;;27.58;14.52;;;3.60;99.90;;;;;;5007776;28;20184;-83
2022/12/09 13:13:25;;;;;;;25.67;16.05;;;3.60;99.90;;;;;;5050187;28;20187;-84
2022/12/09 13:15:54;;;;;;;24.27;13.32;;;3.50;99.90;;;;;;4967478;28;20215;-83
2022/12/09 13:18:39;;;;;;;24.98;14.05;;;3.50;99.90;;;;;;4968234;28;20196;-84